createdAt,value
2023-01-07T00:00:19.332Z,7.60
2023-01-07T00:03:05.058Z,7.82
2023-01-07T00:05:51.140Z,7.97
2023-01-07T00:08:39.409Z,8.68
2023-01-07T00:11:30.808Z,9.25
2023-01-07T00:14:16.555Z,9.63
2023-01-07T00:17:01.781Z,10.10
2023-01-07T00:19:47.131Z,8.97
2023-01-07T00:22:32.807Z,9.07
2023-01-07T00:25:18.275Z,11.65
2023-01-07T00:28:04.038Z,12.13
2023-01-07T00:30:49.765Z,10.23
2023-01-07T00:33:35.568Z,12.30
2023-01-07T00:36:22.401Z,11.23
2023-01-07T00:39:14.539Z,11.30
2023-01-07T00:42:18.893Z,17.17
2023-01-07T00:45:04.621Z,12.20
2023-01-07T00:47:53.592Z,10.23
2023-01-07T00:50:39.450Z,10.70
2023-01-07T00:53:25.188Z,9.50
2023-01-07T00:56:12.580Z,9.82
2023-01-07T00:58:58.304Z,11.50
2023-01-07T01:01:48.450Z,10.35
2023-01-07T01:04:38.115Z,8.52
2023-01-07T01:07:23.847Z,12.00
2023-01-07T01:10:17.953Z,10.93
2023-01-07T01:13:03.713Z,12.93
2023-01-07T01:15:49.493Z,9.10
2023-01-07T01:18:35.689Z,9.05
2023-01-07T01:21:29.949Z,8.90
2023-01-07T01:24:20.080Z,10.60
2023-01-07T01:27:14.289Z,9.98
2023-01-07T01:33:24.003Z,10.30
2023-01-07T01:39:24.267Z,13.50
2023-01-07T01:45:43.495Z,10.15
2023-01-07T01:48:49.937Z,12.48
2023-01-07T01:51:41.493Z,11.25
2023-01-07T01:54:27.880Z,9.73
2023-01-07T01:57:14.261Z,10.20
2023-01-07T02:00:00.167Z,14.00
2023-01-07T02:02:57.066Z,9.65
2023-01-07T02:05:43.192Z,11.23
2023-01-07T02:08:28.772Z,9.63
2023-01-07T02:11:43.721Z,9.85
2023-01-07T02:15:04.986Z,9.95
2023-01-07T02:18:11.789Z,10.82
2023-01-07T02:21:03.670Z,9.45
2023-01-07T02:24:10.189Z,11.55
2023-01-07T02:27:15.639Z,8.60
2023-01-07T02:30:33.863Z,9.93
2023-01-07T02:33:33.186Z,9.13
2023-01-07T02:36:35.624Z,9.50
2023-01-07T02:39:38.784Z,9.90
2023-01-07T02:42:57.556Z,9.05
2023-01-07T02:46:10.722Z,9.95
2023-01-07T02:49:09.708Z,9.35
2023-01-07T02:51:55.267Z,7.93
2023-01-07T02:54:40.955Z,9.10
2023-01-07T02:57:55.599Z,8.80
2023-01-07T03:01:17.335Z,8.30
2023-01-07T03:04:21.671Z,7.85
2023-01-07T03:07:23.909Z,10.05
2023-01-07T03:10:26.601Z,8.23
2023-01-07T03:13:17.512Z,7.68
2023-01-07T03:16:15.787Z,7.60
2023-01-07T03:19:06.137Z,6.45
2023-01-07T03:21:54.405Z,8.05
2023-01-07T03:24:40.974Z,7.97
2023-01-07T03:27:29.028Z,6.90
2023-01-07T03:30:17.234Z,6.13
2023-01-07T03:33:15.202Z,7.07
2023-01-07T03:36:03.645Z,7.70
2023-01-07T03:38:50.929Z,6.57
2023-01-07T03:41:57.238Z,6.10
2023-01-07T03:44:42.673Z,7.05
2023-01-07T03:47:28.900Z,8.68
2023-01-07T03:50:35.049Z,7.28
2023-01-07T03:53:20.656Z,8.15
2023-01-07T03:56:06.131Z,5.65
2023-01-07T03:58:51.526Z,8.27
2023-01-07T04:01:37.305Z,7.10
2023-01-07T04:04:23.085Z,7.63
2023-01-07T04:07:08.266Z,7.18
2023-01-07T04:09:53.733Z,4.67
2023-01-07T04:12:39.138Z,6.00
2023-01-07T04:15:24.995Z,6.18
2023-01-07T04:18:10.712Z,5.93
2023-01-07T04:20:56.182Z,7.13
2023-01-07T04:23:41.916Z,5.22
2023-01-07T04:26:27.177Z,6.82
2023-01-07T04:29:12.519Z,5.57
2023-01-07T04:31:57.880Z,6.15
2023-01-07T04:34:43.467Z,6.10
2023-01-07T04:37:29.261Z,5.57
2023-01-07T04:40:14.653Z,4.30
2023-01-07T04:43:00.009Z,6.03
2023-01-07T04:45:45.481Z,4.53
2023-01-07T04:48:31.777Z,5.72
2023-01-07T04:51:17.330Z,4.95
2023-01-07T04:54:02.799Z,5.28
2023-01-07T04:56:48.569Z,4.43
2023-01-07T04:59:35.050Z,4.65
2023-01-07T05:02:24.014Z,4.40
2023-01-07T05:05:13.141Z,3.83
2023-01-07T05:07:59.121Z,4.70
2023-01-07T05:10:48.636Z,4.43
2023-01-07T05:13:37.412Z,4.53
2023-01-07T05:16:29.144Z,4.20
2023-01-07T05:19:23.654Z,4.07
2023-01-07T05:22:12.471Z,4.80
2023-01-07T05:25:11.063Z,4.60
2023-01-07T05:27:56.797Z,5.68
2023-01-07T05:30:42.599Z,4.68
2023-01-07T05:33:28.577Z,3.88
2023-01-07T05:36:14.172Z,4.17
2023-01-07T05:38:59.449Z,4.47
2023-01-07T05:41:44.966Z,5.53
2023-01-07T05:44:30.342Z,4.10
2023-01-07T05:47:15.766Z,3.78
2023-01-07T05:50:01.069Z,3.78
2023-01-07T05:52:46.574Z,3.92
2023-01-07T05:55:32.244Z,5.90
2023-01-07T05:58:17.569Z,4.28
2023-01-07T06:01:03.656Z,3.97
2023-01-07T06:03:49.143Z,4.15
2023-01-07T06:06:34.591Z,4.80
2023-01-07T06:09:20.447Z,5.95
2023-01-07T06:12:05.792Z,4.03
2023-01-07T06:14:51.218Z,3.60
2023-01-07T06:17:36.575Z,3.88
2023-01-07T06:20:21.896Z,4.00
2023-01-07T06:23:07.330Z,4.32
2023-01-07T06:25:52.962Z,5.00
2023-01-07T06:28:38.391Z,3.95
2023-01-07T06:31:24.045Z,4.20
2023-01-07T06:34:09.832Z,6.03
2023-01-07T06:36:55.156Z,5.45
2023-01-07T06:39:40.935Z,5.00
2023-01-07T06:42:26.763Z,4.57
2023-01-07T06:45:12.321Z,5.22
2023-01-07T06:47:58.417Z,4.85
2023-01-07T06:50:44.669Z,4.22
2023-01-07T06:53:30.188Z,2.90
2023-01-07T06:56:15.589Z,3.65
2023-01-07T06:59:01.016Z,3.42
2023-01-07T07:01:46.949Z,3.75
2023-01-07T07:04:32.271Z,3.25
2023-01-07T07:07:18.106Z,4.03
2023-01-07T07:10:07.650Z,4.28
2023-01-07T07:12:53.553Z,2.85
2023-01-07T07:15:39.152Z,3.35
2023-01-07T07:18:24.711Z,5.78
2023-01-07T07:21:10.361Z,4.35
2023-01-07T07:23:55.988Z,2.40
2023-01-07T07:26:41.351Z,3.07
2023-01-07T07:29:26.957Z,2.67
2023-01-07T07:32:12.233Z,2.67
2023-01-07T07:34:57.871Z,2.63
2023-01-07T07:37:43.552Z,2.67
2023-01-07T07:40:29.154Z,2.85
2023-01-07T07:43:15.220Z,2.30
2023-01-07T07:46:00.494Z,2.00
2023-01-07T07:48:48.824Z,2.25
2023-01-07T07:51:34.677Z,2.13
2023-01-07T07:54:21.312Z,2.05
2023-01-07T07:57:08.738Z,1.83
2023-01-07T07:59:54.065Z,2.30
2023-01-07T08:02:39.325Z,1.77
2023-01-07T08:05:25.334Z,2.75
2023-01-07T08:08:12.897Z,1.95
2023-01-07T08:10:58.621Z,1.75
2023-01-07T08:13:44.793Z,3.03
2023-01-07T08:16:30.263Z,3.83
2023-01-07T08:19:15.776Z,1.55
2023-01-07T08:22:01.133Z,3.55
2023-01-07T08:24:46.518Z,3.53
2023-01-07T08:27:31.870Z,2.47
2023-01-07T08:30:17.319Z,3.60
2023-01-07T08:33:07.305Z,1.90
2023-01-07T08:35:52.647Z,4.50
2023-01-07T08:38:38.268Z,5.90
2023-01-07T08:41:24.762Z,1.70
2023-01-07T08:44:10.204Z,1.63
2023-01-07T08:46:56.070Z,2.70
2023-01-07T08:49:41.277Z,1.20
2023-01-07T08:52:26.721Z,1.08
2023-01-07T08:55:12.358Z,1.88
2023-01-07T08:57:57.802Z,2.08
2023-01-07T09:00:43.729Z,1.60
2023-01-07T09:03:29.287Z,1.25
2023-01-07T09:06:14.964Z,1.30
2023-01-07T09:09:00.542Z,1.98
2023-01-07T09:11:46.321Z,1.42
2023-01-07T09:14:32.364Z,1.37
2023-01-07T09:17:17.953Z,1.05
2023-01-07T09:20:06.796Z,2.42
2023-01-07T09:22:52.178Z,0.98
2023-01-07T09:25:37.615Z,0.80
2023-01-07T09:28:23.487Z,0.90
2023-01-07T09:31:09.370Z,0.93
2023-01-07T09:33:54.772Z,4.88
2023-01-07T09:36:40.086Z,0.80
2023-01-07T09:39:25.633Z,0.75
2023-01-07T09:42:13.773Z,1.45
2023-01-07T09:45:10.178Z,1.08
2023-01-07T09:47:58.514Z,1.73
2023-01-07T09:50:55.450Z,0.95
2023-01-07T09:53:46.997Z,2.40
2023-01-07T09:56:34.321Z,1.35
2023-01-07T09:59:20.050Z,1.40
2023-01-07T10:02:29.875Z,1.75
2023-01-07T10:05:32.263Z,2.20
2023-01-07T10:08:44.541Z,2.20
2023-01-07T10:11:38.540Z,1.02
2023-01-07T10:14:35.344Z,1.02
2023-01-07T10:17:40.751Z,0.63
2023-01-07T10:20:50.034Z,1.10
2023-01-07T10:23:46.312Z,1.90
2023-01-07T10:26:42.920Z,1.10
2023-01-07T10:29:31.986Z,1.30
2023-01-07T10:32:22.869Z,1.20
2023-01-07T10:35:17.391Z,2.28
2023-01-07T10:38:04.663Z,2.03
2023-01-07T10:40:55.384Z,1.23
2023-01-07T10:44:36.622Z,1.45
2023-01-07T10:47:43.558Z,1.33
2023-01-07T10:50:47.291Z,1.35
2023-01-07T10:54:02.907Z,1.75
2023-01-07T10:56:54.580Z,0.77
2023-01-07T10:59:43.322Z,0.70
2023-01-07T11:02:29.359Z,1.60
2023-01-07T11:05:15.194Z,0.70
2023-01-07T11:08:09.955Z,0.65
2023-01-07T11:10:56.525Z,0.70
2023-01-07T11:13:56.038Z,0.77
2023-01-07T11:16:47.885Z,1.00
2023-01-07T11:19:45.018Z,0.70
2023-01-07T11:22:33.647Z,0.97
2023-01-07T11:25:29.720Z,0.60
2023-01-07T11:28:20.235Z,0.75
2023-01-07T11:31:06.092Z,0.77
2023-01-07T11:34:01.512Z,1.42
2023-01-07T11:36:50.683Z,1.60
2023-01-07T11:39:36.521Z,2.10
2023-01-07T11:42:40.132Z,1.10
2023-01-07T11:45:38.415Z,1.07
2023-01-07T11:48:34.108Z,1.23
2023-01-07T11:51:22.700Z,1.27
2023-01-07T11:54:20.580Z,1.50
2023-01-07T11:57:20.720Z,1.08
2023-01-07T12:00:16.451Z,0.77
2023-01-07T12:03:09.399Z,1.08
2023-01-07T12:06:01.830Z,0.98
2023-01-07T12:08:56.622Z,1.97
2023-01-07T12:11:44.625Z,0.87
2023-01-07T12:14:33.012Z,1.00
2023-01-07T12:17:24.753Z,1.02
2023-01-07T12:20:35.882Z,0.88
2023-01-07T12:23:33.484Z,0.80
2023-01-07T12:26:29.717Z,1.52
2023-01-07T12:29:36.244Z,1.60
2023-01-07T12:32:38.733Z,0.73
2023-01-07T12:35:29.677Z,1.20
2023-01-07T12:38:25.190Z,0.77
2023-01-07T12:41:22.192Z,1.30
2023-01-07T12:44:13.593Z,1.38
2023-01-07T12:47:30.661Z,1.83
2023-01-07T12:50:19.003Z,1.83
2023-01-07T12:53:16.365Z,0.93
2023-01-07T12:56:22.977Z,1.40
2023-01-07T12:59:45.634Z,1.05
2023-01-07T13:02:48.593Z,0.77
2023-01-07T13:05:40.848Z,0.90
2023-01-07T13:08:32.733Z,1.40
2023-01-07T13:11:52.346Z,1.27
2023-01-07T13:14:48.295Z,1.50
2023-01-07T13:17:33.922Z,0.98
2023-01-07T13:20:52.442Z,1.10
2023-01-07T13:24:08.661Z,0.70
2023-01-07T13:27:09.525Z,0.50
2023-01-07T13:30:18.877Z,0.77
2023-01-07T13:33:26.368Z,0.38
2023-01-07T13:36:34.615Z,1.17
2023-01-07T13:39:30.280Z,0.40
2023-01-07T13:42:25.141Z,0.30
2023-01-07T13:45:24.206Z,0.47
2023-01-07T13:48:23.378Z,1.03
2023-01-07T13:51:10.283Z,0.30
2023-01-07T13:53:55.714Z,0.20
2023-01-07T13:56:41.402Z,0.47
2023-01-07T13:59:29.930Z,0.20
2023-01-07T14:02:17.378Z,0.20
2023-01-07T14:05:10.313Z,0.85
2023-01-07T14:07:59.680Z,2.03
2023-01-07T14:10:53.163Z,0.30
2023-01-07T14:13:52.698Z,0.50
2023-01-07T14:17:08.992Z,1.10
2023-01-07T14:20:22.375Z,0.90
2023-01-07T14:23:34.973Z,3.20
2023-01-07T14:26:39.702Z,1.73
2023-01-07T14:29:45.409Z,0.30
2023-01-07T14:32:37.189Z,0.40
2023-01-07T14:35:29.503Z,0.35
2023-01-07T14:38:41.883Z,0.45
2023-01-07T14:41:27.434Z,0.40
2023-01-07T14:44:41.797Z,0.20
2023-01-07T14:47:45.131Z,0.20
2023-01-07T14:51:11.871Z,0.20
2023-01-07T14:54:36.284Z,0.50
2023-01-07T14:57:50.576Z,0.40
2023-01-07T15:01:13.092Z,0.40
2023-01-07T15:04:25.013Z,0.40
2023-01-07T15:07:18.069Z,2.83
2023-01-07T15:10:49.841Z,0.22
2023-01-07T15:14:01.621Z,0.43
2023-01-07T15:16:50.119Z,0.40
2023-01-07T15:19:39.865Z,0.20
2023-01-07T15:22:46.348Z,0.20
2023-01-07T15:25:56.643Z,0.40
2023-01-07T15:28:51.947Z,0.30
2023-01-07T15:31:56.824Z,1.60
2023-01-07T15:34:43.563Z,0.30
2023-01-07T15:37:29.268Z,0.20
2023-01-07T15:40:20.444Z,0.17
2023-01-07T15:43:06.236Z,6.20
2023-01-07T15:45:59.496Z,2.53
2023-01-07T15:48:44.999Z,0.50
2023-01-07T15:51:31.990Z,0.47
2023-01-07T15:54:35.747Z,0.20
2023-01-07T15:57:28.433Z,0.30
2023-01-07T16:00:14.546Z,0.20
2023-01-07T16:03:01.383Z,0.35
2023-01-07T16:05:48.087Z,1.40
2023-01-07T16:08:33.833Z,0.30
2023-01-07T16:11:27.476Z,0.43
2023-01-07T16:14:19.170Z,0.52
2023-01-07T16:17:19.446Z,0.30
2023-01-07T16:20:19.730Z,0.52
2023-01-07T16:23:07.870Z,23.23
2023-01-07T16:26:16.128Z,1.03
2023-01-07T16:29:10.147Z,1.20
2023-01-07T16:31:56.467Z,1.33
2023-01-07T16:34:42.078Z,0.43
2023-01-07T16:37:29.070Z,0.30
2023-01-07T16:40:22.712Z,0.30
2023-01-07T16:43:32.826Z,0.20
2023-01-07T16:46:25.873Z,0.60
2023-01-07T16:49:11.511Z,1.40
2023-01-07T16:52:03.190Z,1.25
2023-01-07T16:54:49.809Z,0.20
2023-01-07T16:57:42.008Z,1.80
2023-01-07T17:00:27.770Z,0.70
2023-01-07T17:03:14.020Z,0.23
2023-01-07T17:06:04.835Z,0.40
2023-01-07T17:08:55.352Z,0.20
2023-01-07T17:11:41.510Z,0.30
2023-01-07T17:14:38.560Z,0.30
2023-01-07T17:17:28.619Z,0.30
2023-01-07T17:20:19.762Z,0.60
2023-01-07T17:23:25.291Z,10.52
2023-01-07T17:26:10.798Z,1.10
2023-01-07T17:28:59.335Z,0.80
2023-01-07T17:31:45.184Z,0.80
2023-01-07T17:34:30.918Z,0.22
2023-01-07T17:37:16.974Z,0.40
2023-01-07T17:40:02.391Z,1.40
2023-01-07T17:43:08.611Z,0.20
2023-01-07T17:45:54.279Z,0.45
2023-01-07T17:48:39.867Z,0.20
2023-01-07T17:51:27.112Z,0.95
2023-01-07T17:54:20.223Z,0.30
2023-01-07T17:57:05.579Z,0.63
2023-01-07T17:59:51.890Z,0.57
2023-01-07T18:02:37.572Z,0.40
2023-01-07T18:05:26.012Z,1.00
2023-01-07T18:08:11.397Z,2.13
2023-01-07T18:11:16.505Z,0.50
2023-01-07T18:14:02.372Z,0.30
2023-01-07T18:16:47.874Z,0.57
2023-01-07T18:19:33.368Z,0.80
2023-01-07T18:22:20.515Z,2.50
2023-01-07T18:25:06.995Z,0.40
2023-01-07T18:27:53.184Z,0.80
2023-01-07T18:30:39.022Z,0.40
2023-01-07T18:33:24.733Z,0.30
2023-01-07T18:36:11.113Z,0.80
2023-01-07T18:38:56.421Z,1.23
2023-01-07T18:41:41.997Z,1.38
2023-01-07T18:44:27.601Z,1.35
2023-01-07T18:47:13.011Z,0.40
2023-01-07T18:49:58.545Z,0.40
2023-01-07T18:52:44.027Z,0.30
2023-01-07T18:55:29.779Z,4.30
2023-01-07T18:58:16.278Z,0.60
2023-01-07T19:01:03.704Z,2.75
2023-01-07T19:03:49.692Z,0.60
2023-01-07T19:06:35.056Z,0.60
2023-01-07T19:09:20.450Z,0.35
2023-01-07T19:12:06.768Z,0.30
2023-01-07T19:14:52.231Z,0.40
2023-01-07T19:17:37.723Z,1.08
2023-01-07T19:20:23.035Z,0.50
2023-01-07T19:23:08.561Z,0.37
2023-01-07T19:26:02.407Z,0.50
2023-01-07T19:28:47.943Z,0.60
2023-01-07T19:31:33.982Z,0.52
2023-01-07T19:34:19.716Z,0.45
2023-01-07T19:37:05.128Z,0.70
2023-01-07T19:39:50.520Z,0.77
2023-01-07T19:42:36.006Z,0.47
2023-01-07T19:45:21.495Z,0.60
2023-01-07T19:48:07.353Z,0.45
2023-01-07T19:50:54.576Z,0.82
2023-01-07T19:53:40.072Z,0.40
2023-01-07T19:56:25.818Z,0.70
2023-01-07T19:59:11.163Z,0.40
2023-01-07T20:01:57.052Z,1.50
2023-01-07T20:04:43.004Z,0.32
2023-01-07T20:07:33.783Z,0.70
2023-01-07T20:10:19.005Z,0.40
2023-01-07T20:13:06.290Z,1.17
2023-01-07T20:15:52.398Z,1.20
2023-01-07T20:18:39.859Z,0.73
2023-01-07T20:21:26.219Z,0.47
2023-01-07T20:24:12.386Z,1.08
2023-01-07T20:26:57.707Z,1.08
2023-01-07T20:29:43.125Z,5.70
2023-01-07T20:32:28.643Z,1.40
2023-01-07T20:35:14.555Z,1.10
2023-01-07T20:38:00.457Z,1.10
2023-01-07T20:40:46.147Z,2.20
2023-01-07T20:43:32.781Z,2.97
2023-01-07T20:46:18.490Z,0.70
2023-01-07T20:49:03.920Z,0.50
2023-01-07T20:51:49.770Z,0.60
2023-01-07T20:54:35.359Z,0.50
2023-01-07T20:57:21.065Z,0.73
2023-01-07T21:00:07.119Z,0.65
2023-01-07T21:02:52.630Z,0.80
2023-01-07T21:05:38.217Z,0.73
2023-01-07T21:08:24.257Z,0.65
2023-01-07T21:11:15.247Z,0.50
2023-01-07T21:14:00.621Z,0.50
2023-01-07T21:16:46.403Z,0.70
2023-01-07T21:19:31.689Z,0.85
2023-01-07T21:22:17.212Z,0.80
2023-01-07T21:25:02.752Z,0.50
2023-01-07T21:27:48.521Z,1.33
2023-01-07T21:30:35.199Z,0.93
2023-01-07T21:33:20.488Z,0.55
2023-01-07T21:36:17.085Z,0.82
2023-01-07T21:39:02.902Z,0.80
2023-01-07T21:41:48.576Z,0.45
2023-01-07T21:44:34.109Z,0.73
2023-01-07T21:47:19.766Z,0.63
2023-01-07T21:50:05.392Z,0.90
2023-01-07T21:52:50.796Z,0.53
2023-01-07T21:55:39.433Z,1.13
2023-01-07T21:58:24.718Z,1.13
2023-01-07T22:01:11.037Z,1.45
2023-01-07T22:03:58.530Z,1.23
2023-01-07T22:06:43.926Z,1.05
2023-01-07T22:09:29.529Z,4.43
2023-01-07T22:12:15.553Z,1.42
2023-01-07T22:15:01.052Z,1.27
2023-01-07T22:17:46.743Z,1.63
2023-01-07T22:20:32.309Z,0.93
2023-01-07T22:23:18.056Z,0.83
2023-01-07T22:26:05.419Z,0.60
2023-01-07T22:28:56.575Z,0.90
2023-01-07T22:31:42.191Z,0.70
2023-01-07T22:34:27.587Z,1.15
2023-01-07T22:37:17.544Z,1.00
2023-01-07T22:40:06.212Z,1.10
2023-01-07T22:42:56.885Z,1.50
2023-01-07T22:45:56.662Z,1.10
2023-01-07T22:48:42.512Z,2.22
2023-01-07T22:51:31.659Z,1.10
2023-01-07T22:54:17.953Z,2.05
2023-01-07T22:57:06.010Z,2.17
2023-01-07T22:59:51.576Z,1.35
2023-01-07T23:02:37.324Z,1.27
2023-01-07T23:05:22.748Z,0.60
2023-01-07T23:08:09.106Z,0.57
2023-01-07T23:10:54.753Z,1.60
2023-01-07T23:13:40.083Z,2.08
2023-01-07T23:16:25.783Z,1.90
2023-01-07T23:19:11.822Z,2.47
2023-01-07T23:21:57.021Z,1.30
2023-01-07T23:24:42.425Z,2.22
2023-01-07T23:27:28.081Z,2.22
2023-01-07T23:30:14.286Z,0.60
2023-01-07T23:32:59.703Z,1.27
2023-01-07T23:35:45.291Z,1.15
2023-01-07T23:38:30.971Z,1.00
2023-01-07T23:41:16.699Z,1.70
2023-01-07T23:44:02.036Z,1.23
2023-01-07T23:46:47.345Z,0.82
2023-01-07T23:49:32.787Z,1.30
2023-01-07T23:52:19.032Z,0.90
2023-01-07T23:55:05.533Z,1.65
2023-01-07T23:57:51.184Z,1.25
